Time;durP1;ratioP1;P1;durP2;ratioP2;P2;SDS_P1;SDS_P2;PMS_P1;PMS_P2;Temp;Humidity;BMP_temperature;BMP_pressure;BME280_temperature;BME280_humidity;BME280_pressure;Samples;Min_cycle;Max_cycle;Signal;HPM_P1;HPM_P2
2023/06/01 00:02:41;;;;;;;24.60;14.63;;;;;;;14.39;100.00;100356.72;5132322;27;20499;-80
2023/06/01 00:05:25;;;;;;;24.85;14.95;;;;;;;14.40;100.00;100350.41;5132225;27;20069;-80
2023/06/01 00:08:09;;;;;;;22.15;13.27;;;;;;;13.76;100.00;100353.72;5132001;27;20039;-81
2023/06/01 00:10:53;;;;;;;19.90;13.32;;;;;;;14.27;100.00;100352.91;5133265;27;20042;-80
2023/06/01 00:13:37;;;;;;;18.92;12.15;;;;;;;14.39;100.00;100356.72;5133423;27;20069;-80
2023/06/01 00:16:22;;;;;;;19.58;11.75;;;;;;;14.54;100.00;100347.88;5129388;27;20034;-80
2023/06/01 00:19:07;;;;;;;19.38;11.93;;;;;;;14.29;100.00;100335.06;5117281;27;20046;-81
2023/06/01 00:21:56;;;;;;;20.15;11.95;;;;;;;14.55;100.00;100339.00;5132591;27;20179;-80
2023/06/01 00:24:41;;;;;;;19.67;11.63;;;;;;;14.57;100.00;100342.25;5129902;27;20114;-81
2023/06/01 00:27:25;;;;;;;22.15;13.57;;;;;;;14.01;100.00;100346.31;5129621;27;20171;-80
2023/06/01 00:30:09;;;;;;;24.60;12.93;;;;;;;14.37;100.00;100352.59;5129683;27;20042;-80
2023/06/01 00:32:54;;;;;;;19.27;12.82;;;;;;;14.61;100.00;100345.31;5130605;27;20569;-81
2023/06/01 00:35:38;;;;;;;21.95;12.88;;;;;;;14.85;100.00;100349.44;5132554;27;20080;-81
2023/06/01 00:38:22;;;;;;;22.67;14.02;;;;;;;14.05;100.00;100331.75;5130565;27;20038;-80
2023/06/01 00:41:06;;;;;;;20.58;12.68;;;;;;;14.60;100.00;100341.03;5131427;27;20133;-79
2023/06/01 00:43:49;;;;;;;;;;;;;;;14.48;100.00;100346.84;5132178;27;20042;-80
2023/06/01 00:46:37;;;;;;;20.20;11.98;;;;;;;14.31;100.00;100348.09;5130396;27;19934;-80
2023/06/01 00:49:21;;;;;;;19.60;13.50;;;;;;;14.26;100.00;100340.72;5131731;27;20505;-80
2023/06/01 00:52:06;;;;;;;22.50;13.18;;;;;;;14.32;100.00;100339.16;5130991;27;20081;-81
2023/06/01 00:54:50;;;;;;;21.70;13.07;;;;;;;14.50;100.00;100334.25;5131937;27;20069;-80
2023/06/01 00:57:35;;;;;;;21.05;13.10;;;;;;;14.45;100.00;100339.28;5130590;27;20523;-80
2023/06/01 01:00:20;;;;;;;20.63;12.93;;;;;;;14.27;100.00;100339.69;5124460;27;20046;-80
2023/06/01 01:03:08;;;;;;;23.83;12.57;;;;;;;14.63;100.00;100352.06;5131162;27;20034;-81
2023/06/01 01:06:22;;;;;;;26.58;13.43;;;;;;;14.40;100.00;100347.78;5129646;28;20046;-81
2023/06/01 01:09:32;;;;;;;22.55;12.05;;;;;;;14.83;100.00;100352.25;5127267;28;20046;-79
2023/06/01 01:12:41;;;;;;;20.70;12.43;;;;;;;14.33;100.00;100349.50;5130975;28;20483;-80
2023/06/01 01:15:31;;;;;;;20.80;12.95;;;;;;;13.82;100.00;100351.19;5113586;27;20434;-80
2023/06/01 01:18:32;;;;;;;24.77;13.88;;;;;;;14.31;100.00;100335.69;5131199;27;20035;-80
2023/06/01 01:21:27;;;;;;;26.40;14.15;;;;;;;14.93;100.00;100344.00;5128216;28;20127;-79
2023/06/01 01:24:50;;;;;;;23.38;13.07;;;;;;;14.85;100.00;100338.88;5128414;27;20050;-79
2023/06/01 01:27:55;;;;;;;22.35;12.75;;;;;;;14.42;100.00;100331.72;5037232;28;20552;-80
2023/06/01 01:30:42;;;;;;;22.15;13.27;;;;;;;14.63;100.00;100336.22;5019586;28;20156;-78
2023/06/01 01:33:27;;;;;;;24.45;12.73;;;;;;;14.79;100.00;100342.28;5115794;27;20075;-81
2023/06/01 01:36:11;;;;;;;19.92;13.02;;;;;;;14.83;100.00;100333.75;5133493;27;20042;-81
2023/06/01 01:38:55;;;;;;;29.55;14.25;;;;;;;14.56;100.00;100335.34;5131719;27;20115;-80
2023/06/01 01:41:40;;;;;;;26.10;13.93;;;;;;;14.53;100.00;100323.31;5119447;27;20042;-80
2023/06/01 01:44:24;;;;;;;26.60;14.18;;;;;;;14.79;100.00;100329.06;5135102;27;20099;-80
2023/06/01 01:47:25;;;;;;;24.27;13.85;;;;;;;14.75;100.00;100333.09;5130747;27;20042;-80
2023/06/01 01:50:12;;;;;;;24.27;14.75;;;;;;;14.80;100.00;100317.47;5129782;27;20457;-80
2023/06/01 01:52:56;;;;;;;24.10;13.25;;;;;;;14.62;100.00;100323.16;5134667;27;20042;-81
2023/06/01 01:55:41;;;;;;;23.73;14.07;;;;;;;14.63;100.00;100315.06;5133036;27;20084;-78
2023/06/01 01:58:26;;;;;;;26.90;14.07;;;;;;;14.40;100.00;100316.09;5119721;27;20038;-78
2023/06/01 02:01:12;;;;;;;22.50;13.43;;;;;;;14.52;100.00;100323.50;5119767;27;20046;-80
2023/06/01 02:04:04;;;;;;;27.88;14.38;;;;;;;14.27;100.00;100313.28;5132263;27;20122;-81
2023/06/01 02:06:48;;;;;;;31.05;15.70;;;;;;;13.88;100.00;100312.69;5132034;27;20074;-80
2023/06/01 02:09:32;;;;;;;21.83;13.80;;;;;;;13.82;100.00;100303.66;5130877;27;20126;-80
2023/06/01 02:12:17;;;;;;;25.77;15.23;;;;;;;13.75;100.00;100310.66;5133117;27;20042;-80
2023/06/01 02:15:00;;;;;;;28.77;15.45;;;;;;;14.10;100.00;100300.31;5133081;27;20189;-81
2023/06/01 02:17:44;;;;;;;26.83;14.45;;;;;;;13.94;100.00;100316.38;5133219;27;20041;-81
2023/06/01 02:20:28;;;;;;;27.10;15.05;;;;;;;13.26;100.00;100302.28;5130434;27;20561;-80
2023/06/01 02:23:12;;;;;;;29.40;15.18;;;;;;;13.66;100.00;100298.59;5134035;27;20080;-80
2023/06/01 02:25:56;;;;;;;32.65;16.38;;;;;;;14.16;100.00;100293.47;5133005;27;20046;-80
2023/06/01 02:28:41;;;;;;;23.85;14.55;;;;;;;13.90;100.00;100281.63;5132915;27;20136;-80
2023/06/01 02:31:25;;;;;;;25.92;13.75;;;;;;;14.57;100.00;100297.34;5118796;27;20045;-80
2023/06/01 02:34:09;;;;;;;25.77;13.98;;;;;;;14.68;100.00;100278.31;5132553;27;20540;-81
2023/06/01 02:36:57;;;;;;;25.55;14.70;;;;;;;14.37;100.00;100300.63;5133432;27;20174;-81
2023/06/01 02:39:41;;;;;;;27.33;15.13;;;;;;;14.21;100.00;100288.44;5134067;27;20119;-80
2023/06/01 02:42:25;;;;;;;26.58;14.65;;;;;;;13.70;100.00;100289.31;5115619;27;20050;-81
2023/06/01 02:45:09;;;;;;;22.55;14.73;;;;;;;13.77;100.00;100289.38;5133966;27;20038;-80
2023/06/01 02:47:55;;;;;;;26.50;14.13;;;;;;;13.90;100.00;100288.72;5132428;27;20083;-80
2023/06/01 02:50:39;;;;;;;28.73;15.20;;;;;;;14.19;100.00;100290.47;5133237;27;20553;-80
2023/06/01 02:53:22;;;;;;;23.55;13.68;;;;;;;14.18;100.00;100299.38;5131365;27;20128;-81
2023/06/01 02:56:06;;;;;;;31.13;15.50;;;;;;;14.04;100.00;100295.78;5133099;27;20266;-81
2023/06/01 02:58:50;;;;;;;25.77;14.45;;;;;;;14.58;100.00;100293.69;5133227;27;20046;-81
2023/06/01 03:01:35;;;;;;;23.73;13.13;;;;;;;14.51;100.00;100298.06;5133053;27;20488;-81
2023/06/01 03:04:20;;;;;;;24.95;15.05;;;;;;;13.44;100.00;100287.97;5132834;27;20054;-80
2023/06/01 03:07:04;;;;;;;25.85;14.98;;;;;;;13.47;100.00;100295.50;5130211;27;20054;-80
2023/06/01 03:09:48;;;;;;;32.95;17.42;;;;;;;14.08;100.00;100285.69;5131944;27;20049;-79
2023/06/01 03:12:32;;;;;;;27.10;17.00;;;;;;;14.07;100.00;100298.06;5118272;27;20103;-79
2023/06/01 03:15:16;;;;;;;29.13;16.58;;;;;;;14.41;100.00;100296.59;5134133;27;20134;-79
2023/06/01 03:18:03;;;;;;;29.45;16.85;;;;;;;14.23;100.00;100293.56;5133234;27;20108;-79
2023/06/01 03:20:48;;;;;;;27.73;15.23;;;;;;;14.53;100.00;100301.34;5127550;27;20523;-79
2023/06/01 03:23:32;;;;;;;28.25;16.75;;;;;;;14.47;100.00;100288.91;5126940;27;20042;-79
2023/06/01 03:26:20;;;;;;;27.30;15.35;;;;;;;14.84;100.00;100293.13;5132946;27;20034;-79
2023/06/01 03:29:05;;;;;;;28.95;15.18;;;;;;;14.07;100.00;100294.63;5131849;27;20041;-80
2023/06/01 03:31:49;;;;;;;26.85;15.93;;;;;;;14.47;100.00;100278.34;5132020;27;20560;-78
2023/06/01 03:34:36;;;;;;;29.60;15.65;;;;;;;14.17;100.00;100299.59;5131302;27;20499;-81
2023/06/01 03:37:20;;;;;;;30.25;16.85;;;;;;;14.48;100.00;100301.09;5131768;27;20038;-81
2023/06/01 03:40:11;;;;;;;29.52;15.98;;;;;;;14.68;100.00;100291.53;5128891;27;20061;-81
2023/06/01 03:42:55;;;;;;;25.60;15.32;;;;;;;14.55;100.00;100299.34;5131680;27;20092;-80
2023/06/01 03:45:39;;;;;;;26.02;15.85;;;;;;;14.94;100.00;100289.31;5132800;27;20092;-79
2023/06/01 03:48:23;;;;;;;27.75;15.27;;;;;;;14.91;100.00;100293.16;5127608;27;20074;-80
2023/06/01 03:51:07;;;;;;;27.45;15.88;;;;;;;13.99;100.00;100290.25;5131233;27;20163;-80
2023/06/01 03:53:52;;;;;;;22.50;13.98;;;;;;;13.99;100.00;100298.97;5132932;27;20038;-79
2023/06/01 03:56:36;;;;;;;22.00;12.40;;;;;;;14.27;100.00;100289.53;5130925;27;20090;-81
2023/06/01 03:59:20;;;;;;;19.58;12.98;;;;;;;14.11;100.00;100286.09;5132097;27;20111;-79
2023/06/01 04:02:08;;;;;;;27.63;14.43;;;;;;;14.35;100.00;100294.69;5132813;27;20038;-80
2023/06/01 04:04:53;;;;;;;26.23;14.18;;;;;;;14.41;100.00;100290.47;5132422;27;20515;-77
2023/06/01 04:07:37;;;;;;;27.60;15.88;;;;;;;14.67;100.00;100284.59;5131527;27;20058;-80
2023/06/01 04:10:21;;;;;;;26.58;15.63;;;;;;;14.40;100.00;100276.47;5129964;27;20127;-81
2023/06/01 04:13:06;;;;;;;28.17;15.98;;;;;;;14.69;100.00;100281.78;5129993;27;20077;-80
2023/06/01 04:15:50;;;;;;;27.67;15.77;;;;;;;14.73;100.00;100282.22;5132093;27;20174;-80
2023/06/01 04:18:35;;;;;;;28.90;16.23;;;;;;;14.95;100.00;100275.91;5113899;27;20029;-80
2023/06/01 04:21:22;;;;;;;28.95;16.45;;;;;;;14.94;100.00;100284.84;5128941;27;20392;-80
2023/06/01 04:24:06;;;;;;;26.20;15.80;;;;;;;14.78;100.00;100285.94;5130130;27;20114;-81
2023/06/01 04:26:50;;;;;;;25.05;15.20;;;;;;;14.19;100.00;100269.34;5129977;27;20046;-79
2023/06/01 04:29:34;;;;;;;;;;;;;;;14.24;100.00;100287.25;5131261;27;20050;-79
2023/06/01 04:32:21;;;;;;;28.77;15.85;;;;;;;14.38;100.00;100285.56;5127389;27;19934;-79
2023/06/01 04:35:06;;;;;;;25.63;15.35;;;;;;;14.47;100.00;100288.91;5130486;27;20547;-79
2023/06/01 04:37:51;;;;;;;28.75;17.15;;;;;;;14.74;100.00;100283.88;5130897;27;20046;-81
2023/06/01 04:40:35;;;;;;;28.38;15.65;;;;;;;14.65;100.00;100289.25;5131021;27;20124;-79
2023/06/01 04:43:20;;;;;;;28.30;15.35;;;;;;;14.25;100.00;100286.25;5130491;27;20104;-81
2023/06/01 04:46:05;;;;;;;27.95;15.38;;;;;;;14.14;100.00;100275.16;5131689;27;21821;-83
2023/06/01 04:48:51;;;;;;;23.55;15.52;;;;;;;14.97;100.00;100273.91;5126060;27;20045;-81
2023/06/01 04:51:36;;;;;;;24.13;13.43;;;;;;;14.10;100.00;100273.91;5129039;27;20045;-81
2023/06/01 04:54:20;;;;;;;24.80;13.93;;;;;;;14.36;100.00;100283.13;5128331;27;20086;-82
2023/06/01 04:57:07;;;;;;;23.80;13.93;;;;;;;14.33;100.00;100280.84;5128774;27;20054;-82
2023/06/01 04:59:56;;;;;;;27.42;15.27;;;;;;;14.37;100.00;100279.47;5128019;27;20096;-81
2023/06/01 05:02:43;;;;;;;26.83;15.10;;;;;;;14.61;100.00;100277.44;5131342;27;21353;-82
2023/06/01 05:05:28;;;;;;;23.92;14.20;;;;;;;14.53;100.00;100274.91;5128837;27;20041;-82
2023/06/01 05:08:12;;;;;;;28.58;14.55;;;;;;;14.36;100.00;100288.41;5127742;27;20054;-81
2023/06/01 05:10:55;;;;;;;28.67;15.75;;;;;;;13.96;100.00;100283.53;5128403;28;20046;-80
2023/06/01 05:13:40;;;;;;;28.73;15.77;;;;;;;14.30;100.00;100288.34;5115842;28;20154;-82
2023/06/01 05:16:24;;;;;;;31.70;15.50;;;;;;;14.60;100.00;100285.56;5128485;28;20142;-82
2023/06/01 05:19:10;;;;;;;26.50;16.27;;;;;;;14.59;100.00;100271.53;5130002;28;20042;-82
2023/06/01 05:21:54;;;;;;;25.58;15.43;;;;;;;14.24;100.00;100268.78;5125833;28;20064;-83
2023/06/01 05:24:38;;;;;;;27.40;16.67;;;;;;;14.69;100.00;100277.31;5128264;27;20034;-81
2023/06/01 05:27:22;;;;;;;25.23;15.30;;;;;;;14.87;100.00;100268.13;5113897;28;20388;-81
2023/06/01 05:30:07;;;;;;;33.65;16.52;;;;;;;14.97;100.00;100279.19;5127920;28;20045;-80
2023/06/01 05:32:51;;;;;;;25.48;15.00;;;;;;;15.01;100.00;100262.94;5125742;28;20091;-81
2023/06/01 05:35:35;;;;;;;27.88;14.13;;;;;;;14.66;100.00;100267.13;5128676;27;20221;-82
2023/06/01 05:38:20;;;;;;;25.13;14.63;;;;;;;14.04;100.00;100268.56;5130962;27;20053;-81
2023/06/01 05:41:04;;;;;;;21.55;12.80;;;;;;;13.92;100.00;100261.16;5128522;27;20065;-82
2023/06/01 05:43:48;;;;;;;26.65;14.85;;;;;;;14.47;100.00;100265.13;5115368;28;20074;-82
2023/06/01 05:46:32;;;;;;;27.52;14.30;;;;;;;14.46;100.00;100255.56;5130945;28;20038;-82
2023/06/01 05:49:17;;;;;;;24.63;12.70;;;;;;;14.46;100.00;100266.97;5113038;28;20047;-81
2023/06/01 05:52:01;;;;;;;21.00;12.40;;;;;;;14.80;100.00;100259.34;5130832;27;20073;-81
2023/06/01 05:54:45;;;;;;;23.83;12.82;;;;;;;13.98;100.00;100262.22;5130698;28;20160;-81
2023/06/01 05:57:29;;;;;;;22.77;12.15;;;;;;;14.49;100.00;100271.03;5127815;28;20063;-80
2023/06/01 06:00:15;;;;;;;23.33;15.00;;;;;;;14.27;100.00;100268.41;5130692;28;20137;-80
2023/06/01 06:03:00;;;;;;;25.33;13.77;;;;;;;14.31;100.00;100280.22;5128742;27;20091;-82
2023/06/01 06:05:44;;;;;;;22.25;14.25;;;;;;;14.83;100.00;100267.66;5112389;28;20039;-81
2023/06/01 06:08:29;;;;;;;23.45;14.45;;;;;;;15.08;100.00;100261.13;5127940;27;20061;-81
2023/06/01 06:11:13;;;;;;;28.65;15.77;;;;;;;15.78;100.00;100258.41;5113468;27;20461;-81
2023/06/01 06:13:57;;;;;;;24.65;14.32;;;;;;;16.05;99.05;100258.50;5124936;28;20454;-81
2023/06/01 06:16:41;;;;;;;21.10;12.90;;;;;;;16.10;98.74;100258.72;5128451;28;20401;-82
2023/06/01 06:19:26;;;;;;;21.52;13.07;;;;;;;16.13;97.64;100262.81;5128188;28;20588;-82
2023/06/01 06:22:11;;;;;;;19.23;12.48;;;;;;;15.89;97.59;100269.47;5132910;27;20081;-82
2023/06/01 06:24:55;;;;;;;23.92;12.32;;;;;;;15.79;98.41;100264.50;5129978;27;20381;-81
2023/06/01 06:27:39;;;;;;;22.75;13.35;;;;;;;15.95;97.05;100263.41;5130447;27;20080;-83
2023/06/01 06:30:24;;;;;;;22.92;12.70;;;;;;;15.82;97.77;100253.53;5128220;27;20732;-81
2023/06/01 06:33:12;;;;;;;19.42;11.95;;;;;;;16.36;97.04;100259.78;5125928;27;20043;-81
2023/06/01 06:35:56;;;;;;;17.55;12.23;;;;;;;16.06;96.91;100257.50;5115841;27;20487;-80
2023/06/01 06:38:40;;;;;;;19.40;11.75;;;;;;;16.17;97.40;100257.94;5112530;27;20529;-80
2023/06/01 06:41:24;;;;;;;20.08;12.02;;;;;;;15.56;97.84;100250.59;5128854;27;20046;-80
2023/06/01 06:44:08;;;;;;;27.73;11.90;;;;;;;15.73;97.98;100255.56;5129366;27;20095;-82
2023/06/01 06:46:52;;;;;;;17.38;10.82;;;;;;;15.78;98.31;100257.59;5116024;27;20088;-82
2023/06/01 06:49:36;;;;;;;18.52;11.68;;;;;;;15.36;97.97;100255.00;5117073;27;20046;-82
2023/06/01 06:52:20;;;;;;;21.70;11.70;;;;;;;15.31;99.30;100249.47;5131947;27;20058;-84
2023/06/01 06:55:05;;;;;;;18.42;11.23;;;;;;;15.16;100.00;100233.72;5133143;27;20089;-85
2023/06/01 06:57:49;;;;;;;17.67;11.23;;;;;;;15.86;98.53;100265.38;5113875;27;20094;-83
2023/06/01 07:00:33;;;;;;;16.42;10.88;;;;;;;16.04;97.27;100256.09;5128114;27;20045;-82
2023/06/01 07:03:17;;;;;;;20.27;11.20;;;;;;;14.93;100.00;100256.75;5126703;27;20099;-83
2023/06/01 07:06:02;;;;;;;20.35;12.00;;;;;;;16.40;96.84;100263.66;5126466;27;20047;-81
2023/06/01 07:08:45;;;;;;;17.95;10.20;;;;;;;15.34;96.61;100257.81;5131639;27;20641;-82
2023/06/01 07:11:29;;;;;;;14.95;9.65;;;;;;;16.01;96.84;100262.59;5133359;27;20037;-82
2023/06/01 07:14:15;;;;;;;15.43;10.15;;;;;;;16.09;94.38;100267.69;5133519;27;20496;-83
2023/06/01 07:16:59;;;;;;;16.00;9.27;;;;;;;16.02;93.00;100277.44;5114207;27;20034;-83
2023/06/01 07:19:43;;;;;;;16.73;10.98;;;;;;;16.21;91.91;100278.53;5114816;27;20038;-84
2023/06/01 07:22:26;;;;;;;16.23;10.10;;;;;;;16.81;90.61;100267.13;5130622;27;20168;-81
2023/06/01 07:25:12;;;;;;;17.50;10.48;;;;;;;17.05;89.84;100272.00;5131538;27;20050;-81
2023/06/01 07:27:58;;;;;;;16.85;9.98;;;;;;;17.41;88.83;100268.06;5128720;27;20062;-82
2023/06/01 07:30:42;;;;;;;17.42;11.15;;;;;;;16.90;89.80;100273.03;5131257;27;20138;-81
2023/06/01 07:33:26;;;;;;;20.17;9.75;;;;;;;17.12;88.69;100281.59;5127266;27;20502;-81
2023/06/01 07:36:10;;;;;;;16.45;9.35;;;;;;;16.89;89.58;100276.69;5131543;27;20042;-81
2023/06/01 07:38:54;;;;;;;16.98;10.35;;;;;;;16.54;90.54;100279.59;5114397;27;20039;-81
2023/06/01 07:41:39;;;;;;;14.82;9.60;;;;;;;16.76;90.31;100274.06;5131129;27;20099;-82
2023/06/01 07:44:23;;;;;;;13.77;9.75;;;;;;;16.49;90.56;100284.66;5114960;27;20094;-81
2023/06/01 07:47:07;;;;;;;16.73;9.93;;;;;;;16.88;89.90;100280.38;5129115;27;20079;-81
2023/06/01 07:49:52;;;;;;;14.32;9.80;;;;;;;17.71;87.27;100280.81;5129922;27;20106;-79
2023/06/01 07:52:37;;;;;;;15.80;9.85;;;;;;;17.89;85.66;100292.59;5132961;27;20046;-82
2023/06/01 07:55:21;;;;;;;16.45;11.18;;;;;;;17.75;85.27;100282.03;5110068;27;20135;-81
2023/06/01 07:58:05;;;;;;;15.90;10.63;;;;;;;18.24;84.75;100294.84;5130605;27;20084;-81
2023/06/01 08:00:49;;;;;;;18.65;11.88;;;;;;;17.45;85.08;100277.22;5120904;27;20166;-81
2023/06/01 08:03:33;;;;;;;16.70;10.70;;;;;;;18.40;83.16;100285.56;5128932;27;20452;-82
2023/06/01 08:06:17;;;;;;;13.38;9.90;;;;;;;17.31;84.54;100271.16;5121917;27;20034;-82
2023/06/01 08:09:02;;;;;;;14.50;10.32;;;;;;;16.86;86.08;100274.47;5129664;27;20114;-81
2023/06/01 08:11:47;;;;;;;14.75;10.93;;;;;;;17.01;86.57;100292.03;5111876;27;20167;-80
2023/06/01 08:14:34;;;;;;;13.60;9.82;;;;;;;16.73;87.97;100271.84;5127623;27;20054;-81
2023/06/01 08:17:19;;;;;;;18.35;11.10;;;;;;;16.39;88.27;100282.41;5113705;27;20046;-81
2023/06/01 08:20:10;;;;;;;15.57;10.55;;;;;;;16.33;87.66;100284.06;5130395;27;20495;-84
2023/06/01 08:22:55;;;;;;;14.20;9.98;;;;;;;16.17;88.83;100290.53;5129843;27;20107;-83
2023/06/01 08:25:40;;;;;;;14.18;9.32;;;;;;;16.44;88.67;100303.00;5115038;27;20088;-83
2023/06/01 08:28:24;;;;;;;12.23;9.43;;;;;;;16.73;88.16;100303.66;5127311;27;20443;-82
2023/06/01 08:31:08;;;;;;;14.18;9.77;;;;;;;16.84;89.25;100293.25;5113111;27;20172;-82
2023/06/01 08:33:53;;;;;;;14.23;9.95;;;;;;;17.08;88.28;100276.91;5127905;27;20100;-82
2023/06/01 08:36:37;;;;;;;16.17;10.35;;;;;;;17.81;86.74;100291.78;5116408;27;20046;-83
2023/06/01 08:39:25;;;;;;;17.63;10.43;;;;;;;17.24;87.85;100289.72;5126392;27;20050;-81
2023/06/01 08:42:27;;;;;;;15.20;10.38;;;;;;;16.87;89.14;100297.31;5131820;27;20041;-80
2023/06/01 08:45:13;;;;;;;13.77;10.23;;;;;;;17.25;88.43;100296.66;5131266;27;20396;-81
2023/06/01 08:47:58;;;;;;;14.70;9.63;;;;;;;17.58;87.80;100283.53;5127529;27;20042;-81
2023/06/01 08:50:49;;;;;;;15.85;10.60;;;;;;;17.31;87.83;100291.56;5124349;27;20069;-79
2023/06/01 08:53:38;;;;;;;19.48;10.90;;;;;;;18.44;86.02;100288.59;5126727;27;20122;-80
2023/06/01 08:56:23;;;;;;;14.25;10.80;;;;;;;18.01;85.86;100290.88;5125801;27;20559;-80
2023/06/01 08:59:13;;;;;;;14.07;9.75;;;;;;;18.42;84.58;100289.63;5129544;27;20062;-81
2023/06/01 09:01:58;;;;;;;13.90;9.73;;;;;;;19.35;82.41;100296.19;5123252;27;20532;-80
2023/06/01 09:04:44;;;;;;;13.77;9.63;;;;;;;18.40;84.17;100293.53;5124293;27;20091;-81
2023/06/01 09:07:29;;;;;;;15.88;10.30;;;;;;;18.98;82.71;100287.13;5125063;28;20077;-79
2023/06/01 09:10:13;;;;;;;15.25;9.82;;;;;;;18.98;82.37;100295.13;5097324;27;20059;-77
2023/06/01 09:12:57;;;;;;;13.85;9.73;;;;;;;18.70;82.72;100291.06;5122006;28;20023;-76
2023/06/01 09:15:54;;;;;;;15.18;10.55;;;;;;;18.97;82.09;100293.47;5124770;28;20120;-80
2023/06/01 09:18:55;;;;;;;13.50;10.48;;;;;;;18.18;83.16;100293.06;5120651;28;20047;-78
2023/06/01 09:21:39;;;;;;;17.25;10.85;;;;;;;18.94;82.32;100287.75;5121606;28;20131;-78
2023/06/01 09:24:27;;;;;;;11.90;8.75;;;;;;;19.44;80.92;100281.53;5119177;28;20536;-77
2023/06/01 09:27:11;;;;;;;14.25;9.93;;;;;;;18.28;83.30;100290.75;5109836;28;20092;-78
2023/06/01 09:30:01;;;;;;;15.68;9.85;;;;;;;18.56;82.86;100271.72;5116818;28;20096;-79
2023/06/01 09:32:50;;;;;;;19.17;9.55;;;;;;;19.03;82.42;100285.66;5123862;28;20050;-79
2023/06/01 09:35:38;;;;;;;12.63;9.25;;;;;;;18.39;82.91;100283.94;5107565;28;20042;-79
2023/06/01 09:38:26;;;;;;;14.43;10.02;;;;;;;18.75;82.10;100287.72;5115136;28;20065;-78
2023/06/01 09:41:10;;;;;;;14.48;9.65;;;;;;;17.93;83.78;100283.97;5116703;27;20047;-78
2023/06/01 09:43:54;;;;;;;16.60;9.10;;;;;;;18.86;81.36;100290.72;5118462;28;20046;-80
2023/06/01 09:46:55;;;;;;;13.80;9.82;;;;;;;19.39;80.55;100278.72;5125006;28;20042;-77
2023/06/01 09:49:42;;;;;;;14.93;9.88;;;;;;;20.10;79.30;100275.59;5124417;27;20080;-79
2023/06/01 09:52:27;;;;;;;13.90;9.40;;;;;;;20.29;77.81;100280.88;5110683;28;20045;-80
2023/06/01 09:55:11;;;;;;;11.20;8.15;;;;;;;20.41;76.31;100277.19;5120101;27;20096;-81
2023/06/01 09:58:21;;;;;;;11.02;8.20;;;;;;;21.42;75.00;100271.97;5109860;27;20047;-83
2023/06/01 10:01:18;;;;;;;8.65;6.50;;;;;;;20.23;74.84;100267.41;5108161;27;20379;-80
2023/06/01 10:04:05;;;;;;;11.60;7.05;;;;;;;20.59;73.95;100272.78;5103939;27;20042;-79
2023/06/01 10:06:52;;;;;;;7.75;6.80;;;;;;;20.75;73.70;100273.16;5106077;27;20064;-77
2023/06/01 10:09:38;;;;;;;9.40;7.43;;;;;;;20.88;73.24;100261.47;5119123;27;20519;-74
2023/06/01 10:12:36;;;;;;;8.13;6.53;;;;;;;20.87;73.86;100276.69;5126101;27;20043;-80
2023/06/01 10:15:20;;;;;;;7.78;6.28;;;;;;;21.67;72.19;100262.84;5129501;27;20602;-75
2023/06/01 10:18:05;;;;;;;8.27;5.57;;;;;;;20.95;72.82;100272.84;5122488;27;20499;-77
2023/06/01 10:20:51;;;;;;;10.00;5.57;;;;;;;21.49;72.76;100261.94;5120586;27;20582;-77
2023/06/01 10:23:37;;;;;;;9.43;5.63;;;;;;;20.95;74.09;100257.63;5126195;27;20049;-78
2023/06/01 10:26:21;;;;;;;4.82;4.15;;;;;;;21.38;73.94;100266.28;5118411;27;20050;-76
2023/06/01 10:29:06;;;;;;;6.20;4.55;;;;;;;21.04;74.87;100265.31;5121235;27;20054;-79
2023/06/01 10:31:51;;;;;;;5.00;3.95;;;;;;;21.02;74.15;100257.50;5108381;27;20073;-76
2023/06/01 10:34:42;;;;;;;4.50;4.00;;;;;;;21.08;75.32;100261.91;5119413;27;20195;-77
2023/06/01 10:37:26;;;;;;;7.65;4.40;;;;;;;21.49;74.82;100267.28;5098328;27;20053;-75
2023/06/01 10:40:17;;;;;;;5.22;4.35;;;;;;;21.06;75.24;100274.69;5115087;27;20058;-76
2023/06/01 10:43:01;;;;;;;8.13;4.72;;;;;;;20.67;76.19;100267.13;5124242;27;20100;-77
2023/06/01 10:45:45;;;;;;;5.05;4.00;;;;;;;21.39;75.43;100267.06;5123552;27;20061;-80
2023/06/01 10:48:55;;;;;;;6.47;4.28;;;;;;;22.06;73.55;100273.72;5120695;27;20127;-79
2023/06/01 10:51:39;;;;;;;6.15;4.50;;;;;;;22.74;72.83;100269.44;5126356;27;20100;-79
2023/06/01 10:54:27;;;;;;;7.32;4.93;;;;;;;22.73;71.98;100262.47;5102857;27;20070;-85
2023/06/01 10:57:25;;;;;;;5.75;4.32;;;;;;;22.56;72.84;100274.00;5128095;27;20525;-85
2023/06/01 11:00:15;;;;;;;8.93;5.13;;;;;;;22.80;72.96;100266.59;5115271;27;20038;-85
2023/06/01 11:03:02;;;;;;;8.27;5.63;;;;;;;22.88;72.13;100262.69;5132325;27;20156;-86
2023/06/01 11:05:48;;;;;;;6.07;5.30;;;;;;;22.43;73.08;100252.91;5132028;27;20049;-87
2023/06/01 11:08:33;;;;;;;6.70;4.57;;;;;;;21.48;74.20;100257.66;5122164;27;20057;-86
2023/06/01 11:11:20;;;;;;;7.28;4.78;;;;;;;21.04;75.50;100260.75;5121640;27;20501;-86
2023/06/01 11:14:11;;;;;;;11.15;4.90;;;;;;;21.10;76.21;100253.69;5135192;27;20042;-85
2023/06/01 11:16:55;;;;;;;7.82;4.60;;;;;;;21.75;75.62;100254.44;5134775;27;20103;-83
2023/06/01 11:19:40;;;;;;;6.45;4.70;;;;;;;21.55;75.80;100260.97;5119536;27;20046;-85
2023/06/01 11:22:35;;;;;;;6.35;5.03;;;;;;;21.97;75.11;100261.78;5132917;27;20937;-81
2023/06/01 11:25:20;;;;;;;7.60;4.80;;;;;;;21.79;74.96;100254.78;5134546;27;20046;-83
2023/06/01 11:28:04;;;;;;;8.02;5.57;;;;;;;21.15;76.73;100253.78;5131540;27;20089;-83
2023/06/01 11:30:51;;;;;;;7.05;5.47;;;;;;;20.67;77.50;100245.78;5133306;27;20042;-82
2023/06/01 11:33:38;;;;;;;7.43;5.38;;;;;;;20.60;78.10;100270.94;5115781;27;20046;-82
2023/06/01 11:36:24;;;;;;;6.13;5.15;;;;;;;21.50;77.33;100252.88;5126931;27;20121;-83
2023/06/01 11:39:25;;;;;;;8.55;4.45;;;;;;;21.26;76.37;100252.94;5115972;27;20046;-83
2023/06/01 11:42:12;;;;;;;7.85;5.75;;;;;;;21.46;77.63;100256.25;5116989;27;20046;-82
2023/06/01 11:44:58;;;;;;;9.18;5.47;;;;;;;22.01;75.94;100259.44;5131493;27;20508;-83
2023/06/01 11:47:43;;;;;;;6.95;5.30;;;;;;;22.90;75.19;100252.53;5117536;27;20033;-83
2023/06/01 11:50:28;;;;;;;7.95;4.50;;;;;;;22.05;74.88;100245.34;5132740;27;20404;-82
2023/06/01 11:53:13;;;;;;;8.80;4.97;;;;;;;22.21;74.76;100249.09;5132440;27;20507;-83
2023/06/01 11:55:57;;;;;;;7.43;4.72;;;;;;;22.72;74.56;100223.38;5132411;27;20054;-82
2023/06/01 11:58:41;;;;;;;6.18;4.25;;;;;;;22.35;74.31;100251.44;5131901;27;20287;-82
2023/06/01 12:01:26;;;;;;;5.85;4.60;;;;;;;21.34;76.74;100234.94;5132845;27;20423;-82
2023/06/01 12:04:17;;;;;;;5.13;4.57;;;;;;;21.73;75.43;100240.50;5131304;27;20070;-82
2023/06/01 12:07:06;;;;;;;6.97;4.88;;;;;;;22.52;74.79;100243.44;5133028;27;20397;-82
2023/06/01 12:09:53;;;;;;;5.70;4.80;;;;;;;22.22;75.17;100239.22;5129805;27;20042;-82
2023/06/01 12:12:38;;;;;;;7.05;5.32;;;;;;;22.45;74.63;100234.75;5130903;27;20065;-82
2023/06/01 12:15:22;;;;;;;5.82;5.32;;;;;;;22.69;74.25;100240.72;5115635;27;20053;-82
2023/06/01 12:18:07;;;;;;;5.90;5.05;;;;;;;21.75;75.72;100243.75;5130351;27;20038;-83
2023/06/01 12:20:51;;;;;;;6.43;5.82;;;;;;;21.82;75.63;100239.09;5132444;27;20080;-83
2023/06/01 12:23:35;;;;;;;7.20;6.50;;;;;;;20.53;78.92;100247.06;5130488;27;20069;-84
2023/06/01 12:26:19;;;;;;;10.65;5.50;;;;;;;21.57;77.92;100246.59;5127145;27;20042;-85
2023/06/01 12:29:03;;;;;;;6.53;5.85;;;;;;;21.43;77.79;100246.88;5129371;27;20437;-83
2023/06/01 12:31:54;;;;;;;5.97;4.88;;;;;;;20.23;80.57;100250.59;5112702;27;20396;-83
2023/06/01 12:34:39;;;;;;;6.25;5.18;;;;;;;20.86;79.92;100255.56;5127683;27;20526;-83
2023/06/01 12:37:24;;;;;;;6.88;5.20;;;;;;;20.20;81.52;100254.53;5116866;27;20041;-82